createdAt,value
2022-08-26T00:00:58.427Z,21.49
2022-08-26T00:06:00.505Z,21.45
2022-08-26T00:11:02.885Z,21.40
2022-08-26T00:16:05.745Z,21.32
2022-08-26T00:21:09.986Z,21.24
2022-08-26T00:26:12.651Z,21.22
2022-08-26T00:31:14.208Z,21.21
2022-08-26T00:36:20.305Z,21.23
2022-08-26T00:41:22.163Z,21.23
2022-08-26T00:46:28.900Z,21.22
2022-08-26T00:51:31.462Z,21.25
2022-08-26T00:56:36.391Z,21.20
2022-08-26T01:01:41.250Z,21.21
2022-08-26T01:06:44.298Z,21.19
2022-08-26T01:11:49.486Z,21.20
2022-08-26T01:16:51.110Z,21.18
2022-08-26T01:22:10.579Z,21.20
2022-08-26T01:27:17.583Z,21.17
2022-08-26T01:32:22.439Z,21.19
2022-08-26T01:37:29.202Z,21.14
2022-08-26T01:42:30.792Z,21.11
2022-08-26T01:47:36.029Z,21.11
2022-08-26T01:52:42.697Z,21.10
2022-08-26T01:57:46.445Z,21.18
2022-08-26T02:02:50.266Z,21.16
2022-08-26T02:07:51.818Z,21.13
2022-08-26T02:12:53.341Z,21.09
2022-08-26T02:17:54.854Z,21.04
2022-08-26T02:22:59.098Z,21.01
2022-08-26T02:28:00.809Z,20.97
2022-08-26T02:33:05.740Z,21.04
2022-08-26T02:38:10.030Z,21.01
2022-08-26T02:43:12.658Z,20.99
2022-08-26T02:48:18.837Z,20.98
2022-08-26T02:53:25.027Z,21.00
2022-08-26T02:58:27.199Z,20.99
2022-08-26T03:03:28.820Z,21.02
2022-08-26T03:08:32.030Z,20.99
2022-08-26T03:13:33.561Z,20.98
2022-08-26T03:18:35.206Z,20.91
2022-08-26T03:23:38.470Z,20.87
2022-08-26T03:29:00.209Z,20.86
2022-08-26T03:34:01.775Z,20.84
2022-08-26T03:39:03.422Z,20.78
2022-08-26T03:44:08.753Z,20.80
2022-08-26T03:49:10.940Z,20.77
2022-08-26T03:54:12.469Z,20.74
2022-08-26T03:59:14.101Z,20.69
2022-08-26T04:04:15.987Z,20.66
2022-08-26T04:09:21.046Z,20.65
2022-08-26T04:14:24.607Z,20.66
2022-08-26T04:19:26.167Z,20.63
2022-08-26T04:24:28.351Z,20.60
2022-08-26T04:29:30.101Z,20.66
2022-08-26T04:34:32.782Z,20.67
2022-08-26T04:39:35.161Z,20.68
2022-08-26T04:44:37.598Z,20.61
2022-08-26T04:49:39.099Z,20.57
2022-08-26T04:54:42.021Z,20.53
2022-08-26T04:59:43.669Z,20.52
2022-08-26T05:04:45.543Z,20.50
2022-08-26T05:09:47.015Z,20.46
2022-08-26T05:14:48.552Z,20.45
2022-08-26T05:19:52.918Z,20.43
2022-08-26T05:24:54.415Z,20.41
2022-08-26T05:29:57.426Z,20.39
2022-08-26T05:34:59.485Z,20.41
2022-08-26T05:40:04.559Z,20.45
2022-08-26T05:45:06.680Z,20.48
2022-08-26T05:50:08.771Z,20.53
2022-08-26T05:55:10.256Z,20.56
2022-08-26T06:00:15.469Z,20.56
2022-08-26T06:05:18.233Z,20.56
2022-08-26T06:10:31.960Z,20.59
2022-08-26T06:15:35.510Z,20.60
2022-08-26T06:20:37.549Z,20.64
2022-08-26T06:25:39.460Z,20.73
2022-08-26T06:30:41.429Z,20.79
2022-08-26T06:35:43.693Z,20.85
2022-08-26T06:40:48.663Z,20.83
2022-08-26T06:45:51.036Z,20.75
2022-08-26T06:51:05.180Z,20.70
2022-08-26T06:56:09.522Z,20.73
2022-08-26T07:01:29.309Z,20.70
2022-08-26T07:06:35.685Z,20.81
2022-08-26T07:11:40.660Z,20.97
2022-08-26T07:16:42.492Z,21.11
2022-08-26T07:21:44.574Z,21.26
2022-08-26T07:26:46.102Z,21.35
2022-08-26T07:31:49.501Z,21.23
2022-08-26T07:36:51.620Z,21.17
2022-08-26T07:41:54.158Z,21.12
2022-08-26T07:46:56.073Z,21.12
2022-08-26T07:51:58.872Z,21.16
2022-08-26T07:57:00.481Z,21.14
2022-08-26T08:02:06.702Z,21.15
2022-08-26T08:07:11.602Z,21.04
2022-08-26T08:12:14.156Z,21.00
2022-08-26T08:17:16.570Z,20.97
2022-08-26T08:22:19.817Z,21.03
2022-08-26T08:27:24.047Z,21.16
2022-08-26T08:32:25.764Z,21.18
2022-08-26T08:37:27.255Z,21.14
2022-08-26T08:42:58.016Z,21.24
2022-08-26T08:48:06.782Z,21.43
2022-08-26T08:53:16.463Z,21.48
2022-08-26T08:58:20.977Z,21.50
2022-08-26T09:03:48.585Z,21.53
2022-08-26T09:08:51.224Z,21.50
2022-08-26T09:13:54.535Z,21.44
2022-08-26T09:19:03.904Z,21.37
2022-08-26T09:24:06.461Z,21.29
2022-08-26T09:29:14.623Z,21.24
2022-08-26T09:34:17.073Z,21.32
2022-08-26T09:39:27.815Z,21.35
2022-08-26T09:44:29.331Z,21.37
2022-08-26T09:49:39.621Z,21.55
2022-08-26T09:54:44.437Z,21.74
2022-08-26T09:59:49.298Z,21.74
2022-08-26T10:04:54.270Z,21.81
2022-08-26T10:09:55.840Z,21.84
2022-08-26T10:15:03.124Z,21.83
2022-08-26T10:20:22.856Z,21.89
2022-08-26T10:25:32.559Z,22.00
2022-08-26T10:30:50.383Z,22.18
2022-08-26T10:35:55.768Z,22.34
2022-08-26T10:41:16.813Z,22.39
2022-08-26T10:46:22.453Z,22.32
2022-08-26T10:51:36.313Z,22.29
2022-08-26T10:56:37.750Z,22.16
2022-08-26T11:01:42.130Z,22.04
2022-08-26T11:06:46.820Z,21.92
2022-08-26T11:11:50.433Z,21.79
2022-08-26T11:16:54.113Z,21.87
2022-08-26T11:22:18.146Z,21.80
2022-08-26T11:27:28.715Z,21.75
2022-08-26T11:32:39.439Z,21.64
2022-08-26T11:37:41.350Z,21.67
2022-08-26T11:42:57.169Z,21.72
2022-08-26T11:48:16.660Z,22.01
2022-08-26T11:53:18.571Z,22.17
2022-08-26T11:58:23.334Z,22.22
2022-08-26T12:03:51.019Z,22.20
2022-08-26T12:08:55.467Z,22.29
2022-08-26T12:14:15.951Z,22.47
2022-08-26T12:19:32.967Z,22.70
2022-08-26T12:24:35.675Z,22.70
2022-08-26T12:29:37.203Z,22.81
2022-08-26T12:34:42.453Z,22.84
2022-08-26T12:39:44.889Z,22.67
2022-08-26T12:44:53.257Z,22.37
2022-08-26T12:50:07.036Z,22.08
2022-08-26T12:55:22.069Z,21.95
2022-08-26T13:00:36.710Z,21.82
2022-08-26T13:05:38.250Z,21.79
2022-08-26T13:10:42.633Z,21.78
2022-08-26T13:15:44.729Z,21.70
2022-08-26T13:20:46.271Z,21.60
2022-08-26T13:25:47.754Z,21.58
2022-08-26T13:30:49.709Z,21.57
2022-08-26T13:35:51.221Z,21.58
2022-08-26T13:40:52.770Z,21.60
2022-08-26T13:45:54.857Z,21.52
2022-08-26T13:50:56.447Z,21.48
2022-08-26T13:55:59.046Z,21.50
2022-08-26T14:01:05.066Z,21.55
2022-08-26T14:06:06.641Z,21.64
2022-08-26T14:11:08.891Z,21.64
2022-08-26T14:16:15.122Z,21.59
2022-08-26T14:21:16.781Z,21.53
2022-08-26T14:26:29.126Z,21.44
2022-08-26T14:31:32.995Z,21.41
2022-08-26T14:36:35.204Z,21.41
2022-08-26T14:41:43.814Z,21.54
2022-08-26T14:46:50.365Z,21.59
2022-08-26T14:51:51.911Z,21.51
2022-08-26T14:57:00.349Z,21.42
2022-08-26T15:02:02.886Z,21.30
2022-08-26T15:07:04.983Z,21.29
2022-08-26T15:12:06.551Z,21.33
2022-08-26T15:17:08.165Z,21.40
2022-08-26T15:22:09.701Z,21.54
2022-08-26T15:27:11.314Z,21.78
2022-08-26T15:32:13.497Z,21.91
2022-08-26T15:37:15.024Z,21.75
2022-08-26T15:42:17.621Z,21.67
2022-08-26T15:47:19.713Z,21.62
2022-08-26T15:52:21.316Z,21.53
2022-08-26T15:57:22.853Z,21.56
2022-08-26T16:02:26.480Z,21.49
2022-08-26T16:07:31.907Z,21.33
2022-08-26T16:12:33.408Z,21.27
2022-08-26T16:17:35.076Z,21.28
2022-08-26T16:22:36.590Z,21.26
2022-08-26T16:27:38.174Z,21.21
2022-08-26T16:32:40.893Z,21.14
2022-08-26T16:37:42.613Z,21.10
2022-08-26T16:42:44.114Z,21.05
2022-08-26T16:47:46.023Z,21.00
2022-08-26T16:52:51.637Z,20.93
2022-08-26T16:57:57.326Z,20.83
2022-08-26T17:03:00.997Z,20.75
2022-08-26T17:08:03.796Z,20.61
2022-08-26T17:13:05.314Z,20.61
2022-08-26T17:18:07.841Z,20.51
2022-08-26T17:23:09.471Z,20.59
2022-08-26T17:28:13.505Z,20.58
2022-08-26T17:33:15.232Z,20.60
2022-08-26T17:38:21.952Z,20.56
2022-08-26T17:43:26.688Z,20.42
2022-08-26T17:48:28.252Z,20.31
2022-08-26T17:53:29.785Z,20.22
2022-08-26T17:58:31.305Z,20.21
2022-08-26T18:03:36.500Z,20.17
2022-08-26T18:08:40.088Z,20.08
2022-08-26T18:13:47.021Z,19.99
2022-08-26T18:18:53.161Z,19.92
2022-08-26T18:23:54.750Z,19.80
2022-08-26T18:28:56.985Z,19.73
2022-08-26T18:34:00.469Z,19.69
2022-08-26T18:39:03.700Z,19.68
2022-08-26T18:44:05.321Z,19.65
2022-08-26T18:49:08.021Z,19.57
2022-08-26T18:54:10.477Z,19.44
2022-08-26T18:59:12.990Z,19.35
2022-08-26T19:04:15.494Z,19.28
2022-08-26T19:09:18.779Z,19.18
2022-08-26T19:14:22.402Z,19.12
2022-08-26T19:19:24.065Z,19.02
2022-08-26T19:24:26.040Z,18.92
2022-08-26T19:29:33.815Z,18.91
2022-08-26T19:34:36.296Z,18.96
2022-08-26T19:39:37.868Z,19.00
2022-08-26T19:44:58.105Z,18.99
2022-08-26T19:49:59.616Z,19.00
2022-08-26T19:55:04.560Z,18.99
2022-08-26T20:00:11.189Z,18.98
2022-08-26T20:05:15.124Z,18.91
2022-08-26T20:10:21.024Z,18.88
2022-08-26T20:15:23.012Z,18.91
2022-08-26T20:20:42.862Z,18.92
2022-08-26T20:25:46.599Z,19.02
2022-08-26T20:30:48.110Z,19.06
2022-08-26T20:35:49.624Z,19.11
2022-08-26T20:40:51.153Z,19.11
2022-08-26T20:45:55.685Z,19.12
2022-08-26T20:50:59.181Z,19.15
2022-08-26T20:56:02.961Z,19.13
2022-08-26T21:01:07.996Z,19.13
2022-08-26T21:06:10.325Z,19.02
2022-08-26T21:11:12.380Z,18.88
2022-08-26T21:16:14.047Z,18.64
2022-08-26T21:21:15.703Z,18.46
2022-08-26T21:26:17.239Z,18.33
2022-08-26T21:31:23.378Z,18.38
2022-08-26T21:36:25.076Z,18.25
2022-08-26T21:41:27.768Z,18.15
2022-08-26T21:46:30.011Z,18.11
2022-08-26T21:51:34.633Z,18.09
2022-08-26T21:56:39.801Z,18.05
2022-08-26T22:01:41.516Z,18.06
2022-08-26T22:06:46.528Z,17.93
2022-08-26T22:11:48.006Z,17.79
2022-08-26T22:16:50.503Z,17.66
2022-08-26T22:21:54.431Z,17.50
2022-08-26T22:26:56.772Z,17.40
2022-08-26T22:31:58.337Z,17.32
2022-08-26T22:36:59.862Z,17.23
2022-08-26T22:42:01.702Z,17.18
2022-08-26T22:47:03.525Z,17.15
2022-08-26T22:52:05.208Z,17.14
2022-08-26T22:57:06.907Z,17.10
2022-08-26T23:02:08.399Z,17.07
2022-08-26T23:07:13.477Z,17.02
2022-08-26T23:12:14.969Z,16.89
2022-08-26T23:17:16.519Z,16.78
2022-08-26T23:22:18.295Z,16.70
2022-08-26T23:27:19.834Z,16.60
2022-08-26T23:32:21.793Z,16.55
2022-08-26T23:37:24.083Z,16.61
2022-08-26T23:42:27.865Z,16.51
2022-08-26T23:47:31.414Z,16.43
2022-08-26T23:52:51.584Z,16.38
2022-08-26T23:57:53.110Z,16.43
